Map

Track Data

SID SEASON NUMBER BASIN SUBBASIN NAME ISO_TIME NATURE LAT LON WMO_WIND WMO_PRES WMO_AGENCY TRACK_TYPE DIST2LAND LANDFALL IFLAG USA_AGENCY USA_ATCF_ID USA_LAT USA_LON USA_RECORD USA_STATUS USA_WIND USA_PRES USA_SSHS USA_R34_NE USA_R34_SE USA_R34_SW USA_R34_NW USA_R50_NE USA_R50_SE USA_R50_SW USA_R50_NW USA_R64_NE USA_R64_SE USA_R64_SW USA_R64_NW USA_POCI USA_ROCI USA_RMW USA_EYE TOKYO_LAT TOKYO_LON TOKYO_GRADE TOKYO_WIND TOKYO_PRES TOKYO_R50_DIR TOKYO_R50_LONG TOKYO_R50_SHORT TOKYO_R30_DIR TOKYO_R30_LONG TOKYO_R30_SHORT TOKYO_LAND CMA_LAT CMA_LON CMA_CAT CMA_WIND CMA_PRES HKO_LAT HKO_LON HKO_CAT HKO_WIND HKO_PRES NEWDELHI_LAT NEWDELHI_LON NEWDELHI_GRADE NEWDELHI_WIND NEWDELHI_PRES NEWDELHI_CI NEWDELHI_DP NEWDELHI_POCI REUNION_LAT REUNION_LON REUNION_TYPE REUNION_WIND REUNION_PRES REUNION_TNUM REUNION_CI REUNION_RMW REUNION_R34_NE REUNION_R34_SE REUNION_R34_SW REUNION_R34_NW REUNION_R50_NE REUNION_R50_SE REUNION_R50_SW REUNION_R50_NW REUNION_R64_NE REUNION_R64_SE REUNION_R64_SW REUNION_R64_NW BOM_LAT BOM_LON BOM_TYPE BOM_WIND BOM_PRES BOM_TNUM BOM_CI BOM_RMW BOM_R34_NE BOM_R34_SE BOM_R34_SW BOM_R34_NW BOM_R50_NE BOM_R50_SE BOM_R50_SW BOM_R50_NW BOM_R64_NE BOM_R64_SE BOM_R64_SW BOM_R64_NW BOM_ROCI BOM_POCI BOM_EYE BOM_POS_METHOD BOM_PRES_METHOD NADI_LAT NADI_LON NADI_CAT NADI_WIND NADI_PRES WELLINGTON_LAT WELLINGTON_LON WELLINGTON_WIND WELLINGTON_PRES DS824_LAT DS824_LON DS824_STAGE DS824_WIND DS824_PRES TD9636_LAT TD9636_LON TD9636_STAGE TD9636_WIND TD9636_PRES TD9635_LAT TD9635_LON TD9635_WIND TD9635_PRES TD9635_ROCI NEUMANN_LAT NEUMANN_LON NEUMANN_CLASS NEUMANN_WIND NEUMANN_PRES MLC_LAT MLC_LON MLC_CLASS MLC_WIND MLC_PRES USA_GUST BOM_GUST BOM_GUST_PER REUNION_GUST REUNION_GUST_PER USA_SEAHGT USA_SEARAD_NE USA_SEARAD_SE USA_SEARAD_SW USA_SEARAD_NW STORM_SPEED STORM_DIR
1927053S15065 1927 10 SI MM NOT_NAMED 1927-02-21 18:00:00 NR -14.5000 65.1000 main 1004 989 __________O___ -1 -14.5000 65.1000 7 3 231
1927053S15065 1927 10 SI MM NOT_NAMED 1927-02-21 21:00:00 NR -14.6094 64.9642 main 989 965 __________P___ -1 -14.6094 64.9642 7 3 231
1927053S15065 1927 10 SI MM NOT_NAMED 1927-02-22 00:00:00 NR -14.7150 64.8226 main 965 950 __________P___ -1 -14.7150 64.8226 7 4 235
1927053S15065 1927 10 SI MM NOT_NAMED 1927-02-22 03:00:00 NR -14.8131 64.6698 main 950 926 __________P___ -1 -14.8131 64.6698 7 4 239
1927053S15065 1927 10 SI MM NOT_NAMED 1927-02-22 06:00:00 NR -14.9000 64.5000 main 926 902 __________O___ -1 -14.9000 64.5000 7 4 245
1927053S15065 1927 10 SI MM NOT_NAMED 1927-02-22 09:00:00 NR -14.9741 64.3102 main 902 886 __________P___ -1 -14.9741 64.3102 7 4 249
1927053S15065 1927 10 SI MM NOT_NAMED 1927-02-22 12:00:00 NR -15.0425 64.1074 main 886 862 __________P___ -1 -15.0425 64.1074 7 4 250
1927053S15065 1927 10 SI MM NOT_NAMED 1927-02-22 15:00:00 NR -15.1147 63.9008 main 862 839 __________P___ -1 -15.1147 63.9008 7 4 248
1927053S15065 1927 10 SI MM NOT_NAMED 1927-02-22 18:00:00 NR -15.2000 63.7000 main 839 823 __________O___ -1 -15.2000 63.7000 7 4 242
1927053S15065 1927 10 SI MM NOT_NAMED 1927-02-22 21:00:00 NR -15.3023 63.5420 main 815 800 __________P___ -1 -15.3023 63.5420 7 4 234
1927053S15065 1927 10 SI MM NOT_NAMED 1927-02-23 00:00:00 NR -15.4196 63.3872 main 800 777 __________P___ -1 -15.4196 63.3872 7 4 232
1927053S15065 1927 10 SI MM NOT_NAMED 1927-02-23 03:00:00 NR -15.5522 63.2138 main 769 746 __________P___ -1 -15.5522 63.2138 7 5 233
1927053S15065 1927 10 SI MM NOT_NAMED 1927-02-23 06:00:00 NR -15.7000 63.0000 main 746 714 __________O___ -1 -15.7000 63.0000 7 6 238
1927053S15065 1927 10 SI MM NOT_NAMED 1927-02-23 09:00:00 NR -15.8567 62.7141 main 707 676 __________P___ -1 -15.8567 62.7141 7 7 241
1927053S15065 1927 10 SI MM NOT_NAMED 1927-02-23 12:00:00 NR -16.0277 62.3875 main 676 637 __________P___ -1 -16.0277 62.3875 7 7 241
1927053S15065 1927 10 SI MM NOT_NAMED 1927-02-23 15:00:00 NR -16.2098 62.0422 main 629 591 __________P___ -1 -16.2098 62.0422 7 8 241
1927053S15065 1927 10 SI MM NOT_NAMED 1927-02-23 18:00:00 NR -16.4000 61.7000 main 591 552 __________O___ -1 -16.4000 61.7000 7 8 238
1927053S15065 1927 10 SI MM NOT_NAMED 1927-02-23 21:00:00 NR -16.6090 61.3767 main 552 514 __________P___ -1 -16.6090 61.3767 7 7 235
1927053S15065 1927 10 SI MM NOT_NAMED 1927-02-24 00:00:00 NR -16.8225 61.0627 main 514 476 __________P___ -1 -16.8225 61.0627 7 7 234
1927053S15065 1927 10 SI MM NOT_NAMED 1927-02-24 03:00:00 NR -17.0247 60.7673 main 476 438 __________P___ -1 -17.0247 60.7673 7 7 235
1927053S15065 1927 10 SI MM NOT_NAMED 1927-02-24 06:00:00 NR -17.2000 60.5000 main 438 416 __________O___ -1 -17.2000 60.5000 7 6 238
1927053S15065 1927 10 SI MM NOT_NAMED 1927-02-24 09:00:00 NR -17.3245 60.2668 main 416 393 __________P___ -1 -17.3245 60.2668 7 5 242
1927053S15065 1927 10 SI MM NOT_NAMED 1927-02-24 12:00:00 NR -17.4222 60.0621 main 393 371 __________P___ -1 -17.4222 60.0621 7 4 244
1927053S15065 1927 10 SI MM NOT_NAMED 1927-02-24 15:00:00 NR -17.5089 59.8763 main 371 350 __________P___ -1 -17.5089 59.8763 7 4 243
1927053S15065 1927 10 SI MM NOT_NAMED 1927-02-24 18:00:00 NR -17.6000 59.7000 main 350 328 __________O___ -1 -17.6000 59.7000 7 4 238
1927053S15065 1927 10 SI MM NOT_NAMED 1927-02-24 21:00:00 NR -17.7218 59.5178 main 328 313 __________P___ -1 -17.7218 59.5178 7 4 234
1927053S15065 1927 10 SI MM NOT_NAMED 1927-02-25 00:00:00 NR -17.8499 59.3425 main 307 282 __________P___ -1 -17.8499 59.3425 7 4 232
1927053S15065 1927 10 SI MM NOT_NAMED 1927-02-25 03:00:00 NR -17.9781 59.1709 main 282 262 __________P___ -1 -17.9781 59.1709 7 4 233
1927053S15065 1927 10 SI MM NOT_NAMED 1927-02-25 06:00:00 NR -18.1000 59.0000 main 262 241 __________O___ -1 -18.1000 59.0000 7 4 235
1927053S15065 1927 10 SI MM NOT_NAMED 1927-02-25 09:00:00 NR -18.2071 58.8249 main 241 227 __________P___ -1 -18.2071 58.8249 7 4 238
1927053S15065 1927 10 SI MM NOT_NAMED 1927-02-25 12:00:00 NR -18.3074 58.6499 main 222 207 __________P___ -1 -18.3074 58.6499 7 4 239
1927053S15065 1927 10 SI MM NOT_NAMED 1927-02-25 15:00:00 NR -18.4040 58.4749 main 207 189 __________P___ -1 -18.4040 58.4749 7 4 240
1927053S15065 1927 10 SI MM NOT_NAMED 1927-02-25 18:00:00 NR -18.5000 58.3000 main 189 172 __________O___ -1 -18.5000 58.3000 7 4 239
1927053S15065 1927 10 SI MM NOT_NAMED 1927-02-25 21:00:00 NR -18.5999 58.1330 main 172 159 __________P___ -1 -18.5999 58.1330 7 4 238
1927053S15065 1927 10 SI MM NOT_NAMED 1927-02-26 00:00:00 NR -18.6998 57.9649 main 159 145 __________P___ -1 -18.6998 57.9649 7 4 239
1927053S15065 1927 10 SI MM NOT_NAMED 1927-02-26 03:00:00 NR -18.7999 57.7893 main 145 134 __________P___ -1 -18.7999 57.7893 7 4 240
1927053S15065 1927 10 SI MM NOT_NAMED 1927-02-26 06:00:00 NR -18.9000 57.6000 main 134 123 __________O___ -1 -18.9000 57.6000 7 4 243
1927053S15065 1927 10 SI MM NOT_NAMED 1927-02-26 09:00:00 NR -18.9918 57.3933 main 123 116 __________P___ -1 -18.9918 57.3933 7 4 245
1927053S15065 1927 10 SI MM NOT_NAMED 1927-02-26 12:00:00 NR -19.0849 57.1723 main 116 113 __________P___ -1 -19.0849 57.1723 7 5 246
1927053S15065 1927 10 SI MM NOT_NAMED 1927-02-26 15:00:00 NR -19.1856 56.9401 main 118 115 __________P___ -1 -19.1856 56.9401 7 5 244
1927053S15065 1927 10 SI MM NOT_NAMED 1927-02-26 18:00:00 NR -19.3000 56.7000 main 122 122 __________O___ -1 -19.3000 56.7000 7 5 239
1927053S15065 1927 10 SI MM NOT_NAMED 1927-02-26 21:00:00 NR -19.4600 56.4494 main 133 133 __________P___ -1 -19.4600 56.4494 7 6 235
1927053S15065 1927 10 SI MM NOT_NAMED 1927-02-27 00:00:00 NR -19.6300 56.1929 main 147 137 __________P___ -1 -19.6300 56.1929 7 6 236
1927053S15065 1927 10 SI MM NOT_NAMED 1927-02-27 03:00:00 NR -19.7850 55.9400 main 135 123 __________P___ -1 -19.7850 55.9400 7 5 240
1927053S15065 1927 10 SI MM NOT_NAMED 1927-02-27 06:00:00 NR -19.9000 55.7000 main 123 123 __________O___ -1 -19.9000 55.7000 7 5 249
1927053S15065 1927 10 SI MM NOT_NAMED 1927-02-27 09:00:00 NR -19.9511 55.4813 main 111 111 __________P___ -1 -19.9511 55.4813 7 4 261
1927053S15065 1927 10 SI MM NOT_NAMED 1927-02-27 12:00:00 NR -19.9598 55.2772 main 111 111 __________P___ -1 -19.9598 55.2772 7 4 272
1927053S15065 1927 10 SI MM NOT_NAMED 1927-02-27 15:00:00 NR -19.9387 55.0845 main 124 124 __________P___ -1 -19.9387 55.0845 7 4 280
1927053S15065 1927 10 SI MM NOT_NAMED 1927-02-27 18:00:00 NR -19.9000 54.9000 main 129 129 __________O___ -1 -19.9000 54.9000 7 3 280
1927053S15065 1927 10 SI MM NOT_NAMED 1927-02-27 21:00:00 NR -19.8841 54.7669 main 133 133 __________P___ -1 -19.8841 54.7669 7 3 281
1927053S15065 1927 10 SI MM NOT_NAMED 1927-02-28 00:00:00 NR -19.8515 54.6331 main 143 143 __________P___ -1 -19.8515 54.6331 7 3 287
1927053S15065 1927 10 SI MM NOT_NAMED 1927-02-28 03:00:00 NR -19.7933 54.4577 main 157 157 __________P___ -1 -19.7933 54.4577 7 4 290
1927053S15065 1927 10 SI MM NOT_NAMED 1927-02-28 06:00:00 NR -19.7000 54.2000 main 185 185 __________O___ -1 -19.7000 54.2000 7 7 291
1927053S15065 1927 10 SI MM NOT_NAMED 1927-02-28 09:00:00 NR -19.5572 53.8148 main 221 221 __________P___ -1 -19.5572 53.8148 7 9 292
1927053S15065 1927 10 SI MM NOT_NAMED 1927-02-28 12:00:00 NR -19.3805 53.3468 main 274 274 __________P___ -1 -19.3805 53.3468 7 10 292
1927053S15065 1927 10 SI MM NOT_NAMED 1927-02-28 15:00:00 NR -19.1884 52.8305 main 328 318 __________P___ -1 -19.1884 52.8305 7 11 291
1927053S15065 1927 10 SI MM NOT_NAMED 1927-02-28 18:00:00 NR -19.0000 52.3000 main 318 261 __________O___ -1 -19.0000 52.3000 7 11 290
1927053S15065 1927 10 SI MM NOT_NAMED 1927-02-28 21:00:00 NR -18.8305 51.7827 main 261 208 __________P___ -1 -18.8305 51.7827 7 10 288
1927053S15065 1927 10 SI MM NOT_NAMED 1927-03-01 00:00:00 NR -18.6780 51.2801 main 208 151 __________P___ -1 -18.6780 51.2801 7 10 287
1927053S15065 1927 10 SI MM NOT_NAMED 1927-03-01 03:00:00 NR -18.5366 50.7874 main 151 97 __________P___ -1 -18.5366 50.7874 7 10 287
1927053S15065 1927 10 SI MM NOT_NAMED 1927-03-01 06:00:00 NR -18.4000 50.3000 main 97 __________O___ -1 -18.4000 50.3000 7 10 286

About IBTrACS Database

This database is a web-friendly format of International Best Track Archive for Climate Stewardship (IBTrACS), a global best track data archive curated by NOAA dating back to 1842.

Updated: 2021-10-08